Time;durP1;ratioP1;P1;durP2;ratioP2;P2;SDS_P1;SDS_P2;PMS_P1;PMS_P2;Temp;Humidity;BMP_temperature;BMP_pressure;BME280_temperature;BME280_humidity;BME280_pressure;Samples;Min_cycle;Max_cycle;Signal;HPM_P1;HPM_P2
2021/06/16 00:00:16;;;;;;;7.47;3.38;;;19.80;1.00;;;;;;6149552;23;20459;-64
2021/06/16 00:03:07;;;;;;;4.65;3.30;;;19.70;1.00;;;;;;6149701;23;20029;-65
2021/06/16 00:05:56;;;;;;;5.03;3.42;;;19.70;1.00;;;;;;6149092;23;20466;-64
2021/06/16 00:08:44;;;;;;;4.85;3.42;;;19.80;1.00;;;;;;6147230;23;20034;-65
2021/06/16 00:11:32;;;;;;;7.15;3.45;;;19.80;1.00;;;;;;6149024;23;20442;-65
2021/06/16 00:14:22;;;;;;;5.25;3.50;;;19.80;1.00;;;;;;6149543;23;20100;-65
2021/06/16 00:17:11;;;;;;;8.40;3.47;;;19.70;1.00;;;;;;6145599;23;20061;-65
2021/06/16 00:20:00;;;;;;;6.30;3.40;;;19.60;1.00;;;;;;6146971;23;20064;-64
2021/06/16 00:22:50;;;;;;;4.20;3.38;;;19.60;1.00;;;;;;6149835;23;20030;-64
2021/06/16 00:25:38;;;;;;;4.50;3.55;;;19.60;1.00;;;;;;6147669;23;20035;-65
2021/06/16 00:28:27;;;;;;;6.65;3.67;;;19.50;1.00;;;;;;6123833;23;20100;-64
2021/06/16 00:31:15;;;;;;;7.25;3.33;;;19.50;1.00;;;;;;6149905;23;20129;-64
2021/06/16 00:34:04;;;;;;;8.88;3.90;;;19.50;1.00;;;;;;6126561;23;20061;-65
2021/06/16 00:36:53;;;;;;;4.45;3.50;;;19.60;1.00;;;;;;6148609;23;20511;-64
2021/06/16 00:39:42;;;;;;;5.95;3.50;;;19.60;1.00;;;;;;6149692;23;20068;-65
2021/06/16 00:42:30;;;;;;;6.10;3.22;;;19.50;1.00;;;;;;6150966;23;20532;-64
2021/06/16 00:45:19;;;;;;;5.50;3.63;;;19.40;1.00;;;;;;6151235;23;20100;-66
2021/06/16 00:48:08;;;;;;;4.75;3.13;;;19.40;1.00;;;;;;6146965;23;20033;-64
2021/06/16 00:50:56;;;;;;;4.70;3.53;;;19.20;1.00;;;;;;6151823;23;20045;-65
2021/06/16 00:53:46;;;;;;;5.35;3.53;;;19.30;1.00;;;;;;6150677;23;20025;-65
2021/06/16 00:56:34;;;;;;;6.18;4.13;;;19.30;1.00;;;;;;6151417;23;20478;-65
2021/06/16 00:59:23;;;;;;;5.30;3.03;;;19.20;1.00;;;;;;6147707;23;20033;-65
2021/06/16 01:02:13;;;;;;;4.18;3.42;;;19.20;1.00;;;;;;6151421;23;20407;-65
2021/06/16 01:05:04;;;;;;;4.93;3.40;;;19.10;1.00;;;;;;6150536;23;20032;-65
2021/06/16 01:07:58;;;;;;;4.20;3.20;;;19.10;1.00;;;;;;6142596;23;20030;-65
2021/06/16 01:10:55;;;;;;;5.60;3.40;;;19.00;1.00;;;;;;6149758;23;20049;-64
2021/06/16 01:13:49;;;;;;;7.22;4.05;;;19.10;1.00;;;;;;6150558;23;20048;-65
2021/06/16 01:16:40;;;;;;;3.90;3.25;;;19.00;1.00;;;;;;6151281;23;20056;-65
2021/06/16 01:19:43;;;;;;;5.72;3.33;;;18.90;1.00;;;;;;6146872;23;20100;-64
2021/06/16 01:22:38;;;;;;;4.80;3.40;;;19.00;1.00;;;;;;6151961;23;20032;-65
2021/06/16 01:25:29;;;;;;;5.38;3.70;;;19.10;1.00;;;;;;6151072;23;20137;-65
2021/06/16 01:28:22;;;;;;;5.47;3.75;;;19.20;1.00;;;;;;6126623;23;20612;-64
2021/06/16 01:31:12;;;;;;;4.95;3.40;;;18.90;1.00;;;;;;6151892;23;20416;-64
2021/06/16 01:34:02;;;;;;;4.57;3.25;;;18.80;1.00;;;;;;6129532;23;20032;-64
2021/06/16 01:36:53;;;;;;;6.20;3.72;;;18.70;1.00;;;;;;6151845;23;20036;-64
2021/06/16 01:39:44;;;;;;;6.95;3.63;;;18.80;1.00;;;;;;6148607;23;20060;-66
2021/06/16 01:42:33;;;;;;;6.15;3.67;;;18.70;1.00;;;;;;6151647;23;20025;-65
2021/06/16 01:45:23;;;;;;;5.60;3.50;;;18.70;1.00;;;;;;6149776;23;20029;-64
2021/06/16 01:48:16;;;;;;;4.07;3.60;;;18.70;1.00;;;;;;6146836;23;20092;-64
2021/06/16 01:51:08;;;;;;;4.32;3.67;;;18.50;1.00;;;;;;6150324;23;20072;-64
2021/06/16 01:53:57;;;;;;;5.68;4.00;;;18.50;1.00;;;;;;6150587;23;20064;-64
2021/06/16 01:56:47;;;;;;;4.90;3.70;;;18.40;1.00;;;;;;6150043;23;20021;-65
2021/06/16 01:59:40;;;;;;;6.38;3.78;;;18.50;1.00;;;;;;6147043;23;20026;-66
2021/06/16 02:02:30;;;;;;;11.05;3.75;;;18.60;1.00;;;;;;6110003;23;20458;-66
2021/06/16 02:05:20;;;;;;;8.20;4.00;;;18.40;1.00;;;;;;6150167;23;20578;-65
2021/06/16 02:08:13;;;;;;;4.75;3.60;;;18.40;1.00;;;;;;6146452;23;20032;-65
2021/06/16 02:11:04;;;;;;;4.72;3.38;;;18.40;1.00;;;;;;6149885;23;20468;-65
2021/06/16 02:13:54;;;;;;;6.00;3.80;;;18.50;1.00;;;;;;6150086;23;20111;-65
2021/06/16 02:16:50;;;;;;;5.32;3.80;;;18.30;1.00;;;;;;6149929;23;20136;-66
2021/06/16 02:19:43;;;;;;;6.18;3.78;;;18.30;1.00;;;;;;6147022;23;20017;-65
2021/06/16 02:22:31;;;;;;;4.95;3.72;;;18.30;1.00;;;;;;6151489;23;20025;-63
2021/06/16 02:25:23;;;;;;;6.43;4.03;;;18.20;1.00;;;;;;6148648;23;20363;-64
2021/06/16 02:28:11;;;;;;;4.22;3.50;;;18.30;1.00;;;;;;6142983;23;20029;-65
2021/06/16 02:31:00;;;;;;;5.43;3.83;;;18.20;1.00;;;;;;6149049;23;20040;-64
2021/06/16 02:33:50;;;;;;;5.72;3.75;;;18.20;1.00;;;;;;6150425;23;20441;-64
2021/06/16 02:36:44;;;;;;;4.68;3.85;;;18.20;1.00;;;;;;6148497;23;20545;-65
2021/06/16 02:39:38;;;;;;;5.75;4.40;;;18.20;1.00;;;;;;6147964;23;20025;-65
2021/06/16 02:42:28;;;;;;;5.78;4.00;;;18.10;1.00;;;;;;6149699;23;20040;-64
2021/06/16 02:45:18;;;;;;;6.55;3.67;;;18.10;1.00;;;;;;6127317;23;20111;-63
2021/06/16 02:48:08;;;;;;;5.00;4.28;;;17.90;1.20;;;;;;6145967;23;20100;-62
2021/06/16 02:50:59;;;;;;;5.65;4.10;;;17.90;1.90;;;;;;6149067;23;20033;-64
2021/06/16 02:53:50;;;;;;;4.88;3.85;;;17.90;1.90;;;;;;6149450;23;20021;-65
2021/06/16 02:56:40;;;;;;;5.30;3.67;;;17.90;1.90;;;;;;6147499;23;20030;-65
2021/06/16 02:59:31;;;;;;;6.40;4.15;;;17.90;1.90;;;;;;6145344;23;20164;-63
2021/06/16 03:02:23;;;;;;;8.70;4.60;;;18.00;1.90;;;;;;6150191;23;20057;-64
2021/06/16 03:05:14;;;;;;;9.50;4.55;;;18.10;1.00;;;;;;6150572;23;20484;-63
2021/06/16 03:08:03;;;;;;;10.32;5.85;;;18.30;1.00;;;;;;6145686;23;20075;-64
2021/06/16 03:10:54;;;;;;;7.60;5.18;;;18.30;1.00;;;;;;6150688;23;20021;-64
2021/06/16 03:13:45;;;;;;;7.68;5.03;;;18.40;1.00;;;;;;6148890;23;20096;-65
2021/06/16 03:16:34;;;;;;;6.45;4.80;;;18.40;1.00;;;;;;6149640;23;20029;-66
2021/06/16 03:19:24;;;;;;;9.38;5.38;;;18.40;1.00;;;;;;6147676;23;20017;-64
2021/06/16 03:22:13;;;;;;;7.88;5.30;;;18.50;1.00;;;;;;6126791;23;20100;-63
2021/06/16 03:25:03;;;;;;;8.68;5.03;;;18.50;1.00;;;;;;6126584;23;20120;-64
2021/06/16 03:27:54;;;;;;;8.30;5.15;;;18.40;1.00;;;;;;6147521;23;20044;-64
2021/06/16 03:30:43;;;;;;;9.13;5.22;;;18.40;1.00;;;;;;6149066;23;20451;-66
2021/06/16 03:33:31;;;;;;;7.35;4.97;;;18.50;1.00;;;;;;6126913;23;20021;-63
2021/06/16 03:36:21;;;;;;;5.97;4.78;;;18.70;1.00;;;;;;6148694;23;20025;-63
2021/06/16 03:39:09;;;;;;;9.07;5.55;;;18.80;1.00;;;;;;6146434;23;20605;-63
2021/06/16 03:41:58;;;;;;;8.60;5.13;;;18.80;1.00;;;;;;6128666;23;20025;-64
2021/06/16 03:44:49;;;;;;;11.45;5.75;;;19.20;1.00;;;;;;6147952;23;20521;-64
2021/06/16 03:47:40;;;;;;;14.45;6.85;;;19.10;1.00;;;;;;6146094;23;20017;-64
2021/06/16 03:50:30;;;;;;;10.93;6.32;;;19.00;1.00;;;;;;6150537;23;20398;-64
2021/06/16 03:53:19;;;;;;;9.18;6.03;;;18.90;1.00;;;;;;6149429;23;20738;-64
2021/06/16 03:56:08;;;;;;;10.60;5.88;;;18.80;1.00;;;;;;6149240;23;20048;-66
2021/06/16 03:58:57;;;;;;;7.55;5.82;;;19.00;1.00;;;;;;6144585;23;20025;-63
2021/06/16 04:01:47;;;;;;;7.40;6.05;;;18.90;1.00;;;;;;6127031;23;20022;-64
2021/06/16 04:04:36;;;;;;;8.07;5.60;;;19.00;1.00;;;;;;6147483;23;20458;-64
2021/06/16 04:07:25;;;;;;;9.98;6.35;;;19.10;1.00;;;;;;6145894;23;20104;-63
2021/06/16 04:10:14;;;;;;;8.40;5.65;;;19.40;1.00;;;;;;6149082;23;20043;-63
2021/06/16 04:13:04;;;;;;;13.20;5.82;;;19.40;1.00;;;;;;6149805;23;20365;-64
2021/06/16 04:15:52;;;;;;;10.70;6.28;;;19.50;1.00;;;;;;6148168;23;20033;-64
2021/06/16 04:18:44;;;;;;;9.93;5.55;;;19.70;1.00;;;;;;6145054;23;20340;-64
2021/06/16 04:21:32;;;;;;;8.68;5.55;;;19.80;1.00;;;;;;6149890;23;20049;-64
2021/06/16 04:24:21;;;;;;;11.13;5.75;;;20.00;1.00;;;;;;6149040;23;20096;-63
2021/06/16 04:27:10;;;;;;;9.55;5.43;;;20.20;1.00;;;;;;6147919;23;20026;-64
2021/06/16 04:29:58;;;;;;;12.02;5.75;;;20.50;1.00;;;;;;6146062;23;20056;-64
2021/06/16 04:32:47;;;;;;;7.70;5.07;;;20.80;1.00;;;;;;6150348;23;20092;-65
2021/06/16 04:35:37;;;;;;;7.07;5.10;;;21.10;1.00;;;;;;6147117;23;20096;-63
2021/06/16 04:38:25;;;;;;;10.82;5.32;;;21.80;1.00;;;;;;6144195;23;20104;-65
2021/06/16 04:41:13;;;;;;;13.18;5.88;;;22.10;1.00;;;;;;6149601;23;20017;-64
2021/06/16 04:44:02;;;;;;;9.32;5.55;;;22.60;1.00;;;;;;6148697;23;20092;-65
2021/06/16 04:46:51;;;;;;;6.47;4.78;;;22.80;1.00;;;;;;6148494;23;20029;-65
2021/06/16 04:49:40;;;;;;;9.35;5.10;;;23.10;1.00;;;;;;6146028;23;20125;-64
2021/06/16 04:52:30;;;;;;;9.45;5.70;;;23.60;1.00;;;;;;6148137;23;20355;-63
2021/06/16 04:55:18;;;;;;;9.50;5.60;;;23.00;1.00;;;;;;6148069;23;20072;-64
2021/06/16 04:58:06;;;;;;;7.88;5.47;;;23.40;1.00;;;;;;6145509;23;20354;-65
2021/06/16 05:00:55;;;;;;;9.07;5.45;;;23.10;1.00;;;;;;6148919;23;20370;-63
2021/06/16 05:03:43;;;;;;;11.45;5.55;;;22.90;1.00;;;;;;6149361;23;20029;-65
2021/06/16 05:06:32;;;;;;;10.88;5.53;;;22.90;1.00;;;;;;6147413;23;20080;-63
2021/06/16 05:09:22;;;;;;;10.77;5.68;;;22.80;1.00;;;;;;6144987;23;20530;-64
2021/06/16 05:12:11;;;;;;;9.25;5.63;;;22.60;1.00;;;;;;6148588;23;20049;-63
2021/06/16 05:15:00;;;;;;;15.82;6.03;;;22.70;1.00;;;;;;6149320;23;20120;-65
2021/06/16 05:17:49;;;;;;;9.63;5.60;;;22.30;1.00;;;;;;6146177;23;20359;-66
2021/06/16 05:20:37;;;;;;;10.80;5.20;;;23.20;1.00;;;;;;6147954;23;20021;-64
2021/06/16 05:23:27;;;;;;;8.30;5.47;;;23.00;1.00;;;;;;6150060;23;20097;-63
2021/06/16 05:26:17;;;;;;;10.35;5.88;;;23.40;1.00;;;;;;6150000;23;20097;-64
2021/06/16 05:29:06;;;;;;;8.88;5.55;;;23.50;1.00;;;;;;6145736;23;20343;-65
2021/06/16 05:31:55;;;;;;;11.88;6.13;;;23.10;1.00;;;;;;6151363;23;20032;-65
2021/06/16 05:34:43;;;;;;;12.50;5.78;;;23.80;1.00;;;;;;6149172;23;20470;-65
2021/06/16 05:37:31;;;;;;;9.63;5.35;;;24.30;1.00;;;;;;6146981;23;20108;-64
2021/06/16 05:40:20;;;;;;;10.85;5.78;;;24.20;1.00;;;;;;6149279;23;20097;-65
2021/06/16 05:43:09;;;;;;;8.48;4.95;;;23.60;1.00;;;;;;6150100;23;20028;-65
2021/06/16 05:45:58;;;;;;;8.18;5.53;;;24.70;1.00;;;;;;6150073;23;20476;-64
2021/06/16 05:48:46;;;;;;;8.65;5.05;;;25.30;1.00;;;;;;6144964;23;20048;-64
2021/06/16 05:51:35;;;;;;;8.57;5.50;;;25.60;1.00;;;;;;6150489;23;20025;-64
2021/06/16 05:54:23;;;;;;;9.25;5.82;;;25.90;1.00;;;;;;6139867;23;20083;-63
2021/06/16 05:57:12;;;;;;;9.40;5.40;;;24.80;1.00;;;;;;6147895;23;20021;-64
2021/06/16 06:00:06;;;;;;;9.15;4.90;;;24.90;1.00;;;;;;6148341;23;20031;-65
2021/06/16 06:03:04;;;;;;;10.45;5.25;;;25.60;1.00;;;;;;6147588;23;20111;-63
2021/06/16 06:05:53;;;;;;;6.78;4.88;;;24.70;1.00;;;;;;6148930;23;20088;-65
2021/06/16 06:08:41;;;;;;;6.60;5.13;;;24.00;1.00;;;;;;6149641;23;20022;-63
2021/06/16 06:11:30;;;;;;;10.25;5.35;;;23.80;1.00;;;;;;6147607;23;20359;-64
2021/06/16 06:14:18;;;;;;;10.25;4.68;;;23.90;1.00;;;;;;6146496;23;20255;-64
2021/06/16 06:17:08;;;;;;;8.20;4.55;;;23.50;1.00;;;;;;6146995;23;20466;-64
2021/06/16 06:19:57;;;;;;;8.98;4.35;;;23.50;1.00;;;;;;6149643;23;20123;-64
2021/06/16 06:22:45;;;;;;;8.13;4.45;;;23.40;1.00;;;;;;6149327;23;20044;-63
2021/06/16 06:25:33;;;;;;;6.55;3.65;;;23.40;1.00;;;;;;6148493;23;20025;-63
2021/06/16 06:28:23;;;;;;;8.57;4.00;;;23.80;1.00;;;;;;6150748;23;20029;-64
2021/06/16 06:31:11;;;;;;;7.57;4.00;;;23.80;1.00;;;;;;6149853;23;20032;-64
2021/06/16 06:34:02;;;;;;;7.15;3.92;;;23.80;1.00;;;;;;6147088;23;20073;-64
2021/06/16 06:36:52;;;;;;;12.10;4.47;;;24.00;1.00;;;;;;6148275;23;20061;-65
2021/06/16 06:39:42;;;;;;;5.88;3.33;;;24.30;1.00;;;;;;6148738;23;20032;-63
2021/06/16 06:42:30;;;;;;;5.80;3.97;;;25.00;1.00;;;;;;6128835;23;20431;-64
2021/06/16 06:45:19;;;;;;;5.22;3.42;;;24.70;1.00;;;;;;6148293;23;20406;-64
2021/06/16 06:48:08;;;;;;;4.78;4.03;;;24.50;1.00;;;;;;6148052;23;20059;-66
2021/06/16 06:50:58;;;;;;;7.75;3.75;;;24.40;1.00;;;;;;6150031;23;20055;-65
2021/06/16 06:53:46;;;;;;;7.97;3.85;;;24.70;1.00;;;;;;6146559;23;20083;-65
2021/06/16 06:56:35;;;;;;;7.25;3.83;;;24.50;1.00;;;;;;6147761;23;20025;-65
2021/06/16 06:59:44;;;;;;;8.15;4.97;;;24.20;1.00;;;;;;6137550;23;20030;-65
2021/06/16 07:02:33;;;;;;;7.35;4.43;;;24.50;1.00;;;;;;6127951;23;20021;-65
2021/06/16 07:05:22;;;;;;;6.35;3.70;;;24.70;1.00;;;;;;6147089;23;20048;-65
2021/06/16 07:08:12;;;;;;;7.63;4.47;;;24.70;1.00;;;;;;6146917;23;20623;-65
2021/06/16 07:11:00;;;;;;;7.32;4.20;;;24.50;1.00;;;;;;6149202;23;20060;-64
2021/06/16 07:13:49;;;;;;;7.95;4.43;;;24.40;1.00;;;;;;6145571;23;20616;-64
2021/06/16 07:16:37;;;;;;;4.65;3.88;;;24.20;1.00;;;;;;6148508;23;20053;-64
2021/06/16 07:19:26;;;;;;;4.30;3.35;;;24.20;1.00;;;;;;6148085;23;20025;-64
2021/06/16 07:22:14;;;;;;;5.18;3.05;;;24.80;1.00;;;;;;6149344;23;20029;-65
2021/06/16 07:25:07;;;;;;;5.60;3.60;;;24.80;1.00;;;;;;6145177;23;20021;-65
2021/06/16 07:27:55;;;;;;;6.10;3.50;;;25.10;1.00;;;;;;6150306;23;20120;-64
2021/06/16 07:30:43;;;;;;;3.42;3.00;;;25.20;1.00;;;;;;6148574;23;20025;-65
2021/06/16 07:33:32;;;;;;;3.85;3.40;;;25.50;1.00;;;;;;6145477;23;20028;-64
2021/06/16 07:36:20;;;;;;;5.38;3.42;;;25.70;1.00;;;;;;6148987;23;20028;-66
2021/06/16 07:39:09;;;;;;;6.60;3.58;;;26.00;1.00;;;;;;6146791;23;20490;-64
2021/06/16 07:41:58;;;;;;;4.15;3.05;;;25.60;1.00;;;;;;6148888;23;20100;-64
2021/06/16 07:44:51;;;;;;;3.70;3.10;;;25.70;1.00;;;;;;6145817;23;20028;-65
2021/06/16 07:47:40;;;;;;;4.28;3.28;;;25.50;1.00;;;;;;6147326;23;20079;-64
2021/06/16 07:50:29;;;;;;;6.22;3.58;;;25.50;1.00;;;;;;6148151;23;20049;-64
2021/06/16 07:53:18;;;;;;;4.03;3.10;;;26.00;1.00;;;;;;6144946;23;20043;-64
2021/06/16 07:56:06;;;;;;;6.05;3.17;;;25.50;1.00;;;;;;6147015;23;20092;-65
2021/06/16 07:58:56;;;;;;;6.00;2.83;;;26.10;1.00;;;;;;6147355;23;20037;-64
2021/06/16 08:01:45;;;;;;;5.30;3.05;;;26.10;1.00;;;;;;6149381;23;20022;-65
2021/06/16 08:04:37;;;;;;;5.65;3.25;;;26.50;1.00;;;;;;6145629;23;20246;-65
2021/06/16 08:07:25;;;;;;;6.00;3.17;;;26.70;1.00;;;;;;6148728;23;20053;-65
2021/06/16 08:10:14;;;;;;;3.10;2.67;;;26.70;1.00;;;;;;6147426;23;20068;-65
2021/06/16 08:13:03;;;;;;;4.40;3.10;;;26.50;1.00;;;;;;6147863;23;20107;-65
2021/06/16 08:15:53;;;;;;;4.80;2.90;;;26.50;1.00;;;;;;6146277;23;20367;-65
2021/06/16 08:18:41;;;;;;;5.25;3.05;;;26.70;1.00;;;;;;6146274;23;20032;-64
2021/06/16 08:21:30;;;;;;;6.20;3.45;;;27.30;1.00;;;;;;6150078;23;20065;-65
2021/06/16 08:24:18;;;;;;;7.65;2.72;;;27.10;1.00;;;;;;6145382;23;20566;-65
2021/06/16 08:27:09;;;;;;;3.20;2.90;;;27.20;1.00;;;;;;6148765;23;20541;-64
2021/06/16 08:29:57;;;;;;;4.72;2.53;;;27.20;1.00;;;;;;6146036;23;20025;-64
2021/06/16 08:32:47;;;;;;;9.63;4.47;;;27.50;1.00;;;;;;6149502;23;20021;-64
2021/06/16 08:35:36;;;;;;;14.70;3.47;;;27.10;1.00;;;;;;6146194;23;20084;-65
2021/06/16 08:38:25;;;;;;;5.03;3.28;;;26.80;1.00;;;;;;6147069;23;20470;-64
2021/06/16 08:41:13;;;;;;;10.63;2.80;;;27.30;1.00;;;;;;6148403;23;20049;-66
2021/06/16 08:44:01;;;;;;;7.95;3.28;;;27.50;1.00;;;;;;6145981;23;20115;-64
2021/06/16 08:46:51;;;;;;;6.88;2.95;;;27.60;1.00;;;;;;6148556;23;20031;-65
2021/06/16 08:49:41;;;;;;;6.93;3.65;;;27.40;1.00;;;;;;6147687;23;20029;-66
2021/06/16 08:52:33;;;;;;;6.35;3.15;;;27.50;1.00;;;;;;6146728;23;20120;-64
2021/06/16 08:55:22;;;;;;;4.60;3.17;;;27.30;1.00;;;;;;6145566;23;20474;-65
2021/06/16 08:58:11;;;;;;;6.70;3.10;;;27.30;1.00;;;;;;6146780;23;20021;-65
2021/06/16 09:00:59;;;;;;;9.40;3.28;;;27.70;1.00;;;;;;6151119;23;20029;-65
2021/06/16 09:03:47;;;;;;;7.13;3.00;;;28.00;1.00;;;;;;6146135;23;20024;-65
2021/06/16 09:06:37;;;;;;;5.68;3.10;;;28.20;1.00;;;;;;6150345;23;20110;-65
2021/06/16 09:09:28;;;;;;;5.90;2.72;;;27.70;1.00;;;;;;6146685;23;20515;-64
2021/06/16 09:12:31;;;;;;;7.85;2.97;;;28.00;1.00;;;;;;6148887;23;20025;-66
2021/06/16 09:15:21;;;;;;;2.97;2.75;;;28.30;1.00;;;;;;6144407;23;20025;-64
2021/06/16 09:18:12;;;;;;;6.20;3.13;;;28.60;1.00;;;;;;6125751;23;20036;-64
2021/06/16 09:21:00;;;;;;;3.83;2.47;;;28.40;1.00;;;;;;6149140;23;20093;-65
2021/06/16 09:23:53;;;;;;;4.57;2.72;;;28.70;1.00;;;;;;6146018;23;20017;-64
2021/06/16 09:26:43;;;;;;;7.28;3.05;;;28.50;1.00;;;;;;6148140;23;20021;-66
2021/06/16 09:29:32;;;;;;;7.03;3.30;;;28.80;1.00;;;;;;6148345;23;20092;-66
2021/06/16 09:32:20;;;;;;;5.07;2.80;;;28.90;1.00;;;;;;6150224;23;20036;-66
2021/06/16 09:35:19;;;;;;;4.63;2.58;;;28.70;1.00;;;;;;6146514;23;20472;-65
2021/06/16 09:38:13;;;;;;;7.57;3.38;;;29.10;1.00;;;;;;6149200;23;20132;-65
2021/06/16 09:41:03;;;;;;;4.15;2.63;;;29.00;1.00;;;;;;6150837;23;20128;-65
2021/06/16 09:43:54;;;;;;;3.70;2.60;;;29.10;1.00;;;;;;6146347;23;20028;-64
2021/06/16 09:46:43;;;;;;;5.68;3.00;;;29.10;1.00;;;;;;6149175;23;20033;-65
2021/06/16 09:49:51;;;;;;;6.60;2.80;;;29.40;1.00;;;;;;6141706;23;20056;-64
2021/06/16 09:52:43;;;;;;;4.10;2.72;;;29.20;1.00;;;;;;6139606;23;20107;-64
2021/06/16 09:55:32;;;;;;;7.95;3.03;;;29.50;1.00;;;;;;6140345;23;20025;-66
2021/06/16 09:58:22;;;;;;;7.57;2.90;;;29.70;1.00;;;;;;6133773;23;20029;-66
2021/06/16 10:01:10;;;;;;;6.18;2.60;;;29.70;1.00;;;;;;6140513;23;20057;-65
2021/06/16 10:03:58;;;;;;;4.72;2.53;;;29.70;1.00;;;;;;6135269;23;20052;-63
2021/06/16 10:06:47;;;;;;;4.18;2.58;;;29.60;1.00;;;;;;6140469;23;20270;-64
2021/06/16 10:09:36;;;;;;;7.63;2.92;;;29.90;1.00;;;;;;6141741;23;20334;-65
2021/06/16 10:12:27;;;;;;;11.63;2.50;;;29.80;1.00;;;;;;6140663;23;20704;-65
2021/06/16 10:15:19;;;;;;;5.95;2.65;;;29.90;1.00;;;;;;6113237;23;20411;-65
2021/06/16 10:18:08;;;;;;;6.93;2.90;;;29.40;1.00;;;;;;6138912;23;20529;-65
2021/06/16 10:20:58;;;;;;;4.68;2.28;;;29.20;1.00;;;;;;6141510;23;20029;-65
2021/06/16 10:23:46;;;;;;;4.45;2.50;;;29.50;1.00;;;;;;6137138;23;20393;-64
2021/06/16 10:26:35;;;;;;;7.40;2.63;;;29.70;1.00;;;;;;6120293;23;20029;-64
2021/06/16 10:29:28;;;;;;;5.00;2.65;;;30.00;1.00;;;;;;6138766;23;20022;-64
2021/06/16 10:32:38;;;;;;;3.33;2.58;;;29.80;1.00;;;;;;6140615;23;20386;-64
2021/06/16 10:35:35;;;;;;;4.72;2.78;;;29.90;1.00;;;;;;6140945;23;20029;-64
2021/06/16 10:38:24;;;;;;;4.82;2.70;;;29.80;1.00;;;;;;6140131;23;20057;-64
2021/06/16 10:41:12;;;;;;;3.33;2.47;;;30.50;1.00;;;;;;6142212;23;20056;-66
2021/06/16 10:44:11;;;;;;;3.50;2.25;;;30.60;1.00;;;;;;6095539;23;20235;-65
2021/06/16 10:47:01;;;;;;;7.35;2.70;;;30.60;1.00;;;;;;6117479;23;20025;-64
2021/06/16 10:49:53;;;;;;;3.03;2.38;;;30.10;1.00;;;;;;6141140;23;20028;-63
2021/06/16 10:53:03;;;;;;;6.07;2.50;;;30.10;1.00;;;;;;6147589;23;20403;-65
2021/06/16 10:56:06;;;;;;;3.70;2.63;;;30.20;1.00;;;;;;6148736;23;20847;-64
2021/06/16 10:58:54;;;;;;;4.28;2.35;;;30.40;1.00;;;;;;6146349;23;20035;-64
2021/06/16 11:01:47;;;;;;;6.72;3.10;;;30.60;1.00;;;;;;6148735;23;20315;-64
2021/06/16 11:04:37;;;;;;;3.58;2.65;;;30.40;1.00;;;;;;6144524;23;20347;-65
2021/06/16 11:07:39;;;;;;;3.67;2.40;;;30.70;1.00;;;;;;6147486;23;20322;-66
2021/06/16 11:10:53;;;;;;;5.95;2.78;;;30.50;1.00;;;;;;6149404;23;20052;-65
2021/06/16 11:13:43;;;;;;;2.88;2.58;;;30.30;1.00;;;;;;6145549;23;20096;-66
2021/06/16 11:16:53;;;;;;;3.22;2.63;;;30.50;1.00;;;;;;6145746;23;20048;-65
2021/06/16 11:19:42;;;;;;;3.17;2.53;;;30.70;1.00;;;;;;6146735;23;20057;-65
2021/06/16 11:22:41;;;;;;;4.65;2.60;;;30.80;1.00;;;;;;6127867;23;20025;-65
2021/06/16 11:25:35;;;;;;;5.68;2.75;;;31.10;1.00;;;;;;6143688;23;20477;-65
2021/06/16 11:28:36;;;;;;;;;;;31.10;1.00;;;;;;6123843;23;20049;-66
2021/06/16 11:31:24;;;;;;;2.95;2.58;;;31.20;1.00;;;;;;6149053;23;19987;-67
2021/06/16 11:34:48;;;;;;;7.28;2.70;;;31.30;1.00;;;;;;6142467;23;20028;-65
2021/06/16 11:38:00;;;;;;;3.97;2.70;;;31.20;1.00;;;;;;6144843;23;20506;-64
2021/06/16 11:40:51;;;;;;;6.18;2.40;;;31.00;1.00;;;;;;6145528;23;20036;-64
2021/06/16 11:43:41;;;;;;;4.57;2.83;;;30.60;1.00;;;;;;6144300;23;20029;-65
2021/06/16 11:46:34;;;;;;;4.25;2.67;;;30.80;1.00;;;;;;6127855;23;20021;-66
2021/06/16 11:49:24;;;;;;;4.30;2.90;;;31.00;1.00;;;;;;6146863;23;20335;-65
2021/06/16 11:52:19;;;;;;;2.90;2.50;;;31.10;1.00;;;;;;6146488;23;20033;-66
2021/06/16 11:55:09;;;;;;;;;;;31.20;1.00;;;;;;6144784;23;20030;-64
2021/06/16 11:57:58;;;;;;;4.80;2.92;;;31.10;1.00;;;;;;6149122;23;19920;-65
2021/06/16 12:00:47;;;;;;;3.28;2.60;;;31.10;1.00;;;;;;6128309;23;20389;-65
2021/06/16 12:03:36;;;;;;;2.83;2.55;;;30.10;1.00;;;;;;6144610;23;20025;-65
2021/06/16 12:06:24;;;;;;;6.93;2.92;;;30.80;1.00;;;;;;6147761;23;20088;-65
2021/06/16 12:09:13;;;;;;;4.20;2.80;;;30.90;1.00;;;;;;6149206;23;20455;-65
2021/06/16 12:12:03;;;;;;;7.07;2.63;;;31.00;1.00;;;;;;6127853;23;20733;-64
2021/06/16 12:15:10;;;;;;;5.57;2.60;;;31.30;1.00;;;;;;6143876;23;20029;-65
2021/06/16 12:18:01;;;;;;;5.43;2.80;;;31.30;1.00;;;;;;6132596;23;20406;-66
2021/06/16 12:20:52;;;;;;;4.38;2.50;;;31.10;1.00;;;;;;6146816;23;20029;-65
2021/06/16 12:23:43;;;;;;;4.93;2.75;;;31.20;1.00;;;;;;6149559;23;20068;-65
2021/06/16 12:26:31;;;;;;;4.63;2.67;;;31.30;1.00;;;;;;6146495;23;20103;-66
2021/06/16 12:29:21;;;;;;;4.28;2.50;;;31.50;1.00;;;;;;6147324;23;20021;-65
2021/06/16 12:32:10;;;;;;;6.63;2.60;;;31.40;1.00;;;;;;6149112;23;20048;-65
2021/06/16 12:35:17;;;;;;;4.55;2.53;;;30.90;1.00;;;;;;6149081;23;20350;-65
2021/06/16 12:38:05;;;;;;;7.88;2.75;;;31.20;1.00;;;;;;6146785;23;20119;-65
2021/06/16 12:40:54;;;;;;;4.28;2.90;;;31.50;1.00;;;;;;6128755;23;20048;-65
2021/06/16 12:43:42;;;;;;;4.30;2.60;;;31.60;1.00;;;;;;6128966;23;20033;-65
2021/06/16 12:46:49;;;;;;;5.20;2.63;;;31.60;1.00;;;;;;6149147;23;20061;-64
2021/06/16 12:49:47;;;;;;;5.65;2.70;;;31.00;1.00;;;;;;6150813;23;20029;-65
2021/06/16 12:52:38;;;;;;;3.35;2.70;;;31.40;1.00;;;;;;6130914;23;20100;-65
2021/06/16 12:55:26;;;;;;;4.57;2.97;;;31.40;1.00;;;;;;6128571;23;20061;-65
2021/06/16 12:58:15;;;;;;;2.80;2.50;;;31.40;1.00;;;;;;6145762;23;20487;-65
2021/06/16 13:01:16;;;;;;;4.60;2.97;;;31.30;1.00;;;;;;6151399;23;20029;-64
2021/06/16 13:04:06;;;;;;;3.72;2.50;;;31.20;1.00;;;;;;6129048;23;20040;-65
2021/06/16 13:06:56;;;;;;;7.18;2.80;;;31.30;1.00;;;;;;6146019;23;20132;-65
2021/06/16 13:10:13;;;;;;;4.60;2.78;;;31.60;1.00;;;;;;6151291;23;20052;-65
2021/06/16 13:13:04;;;;;;;4.28;2.72;;;31.60;1.00;;;;;;6150896;23;20107;-66
2021/06/16 13:15:53;;;;;;;3.75;2.50;;;31.30;1.00;;;;;;6149085;23;20032;-65
2021/06/16 13:18:41;;;;;;;4.00;2.80;;;31.30;1.00;;;;;;6144763;23;20358;-65
2021/06/16 13:21:31;;;;;;;5.80;2.85;;;31.10;1.00;;;;;;6150642;23;20421;-65
2021/06/16 13:24:20;;;;;;;4.93;3.10;;;31.30;1.00;;;;;;6150338;23;20103;-65
2021/06/16 13:27:08;;;;;;;3.40;2.50;;;31.30;1.00;;;;;;6143653;23;20026;-66
2021/06/16 13:30:01;;;;;;;2.97;2.60;;;31.60;1.00;;;;;;6127839;23;20025;-66
2021/06/16 13:32:49;;;;;;;3.25;2.45;;;31.40;1.00;;;;;;6148924;23;20864;-66
2021/06/16 13:35:38;;;;;;;4.88;3.17;;;31.60;1.00;;;;;;6130603;23;20030;-65
2021/06/16 13:38:28;;;;;;;4.03;2.88;;;31.60;1.00;;;;;;6146612;23;20297;-65
2021/06/16 13:41:19;;;;;;;4.03;2.60;;;31.50;1.00;;;;;;6128396;23;20053;-66
2021/06/16 13:44:07;;;;;;;2.83;2.55;;;31.40;1.00;;;;;;6149025;23;20035;-65
2021/06/16 13:46:56;;;;;;;3.85;2.67;;;31.30;1.00;;;;;;6145191;23;20145;-66
2021/06/16 13:49:45;;;;;;;5.15;2.80;;;31.30;1.00;;;;;;6150219;23;20026;-66
2021/06/16 13:52:34;;;;;;;5.82;2.63;;;31.20;1.00;;;;;;6129978;23;20111;-65
2021/06/16 13:55:24;;;;;;;4.45;2.40;;;31.30;1.00;;;;;;6126350;23;20386;-65
2021/06/16 13:58:13;;;;;;;5.65;3.47;;;31.30;1.00;;;;;;6145356;23;20056;-66
2021/06/16 14:01:01;;;;;;;4.82;3.42;;;31.20;1.00;;;;;;6150643;23;20031;-65
2021/06/16 14:03:50;;;;;;;5.40;3.03;;;31.10;1.00;;;;;;6128208;23;20029;-66
2021/06/16 14:06:47;;;;;;;3.03;2.42;;;31.00;1.00;;;;;;6146665;23;20092;-67
2021/06/16 14:09:35;;;;;;;5.15;3.00;;;31.10;1.00;;;;;;6147302;23;20021;-66
2021/06/16 14:12:26;;;;;;;5.10;3.05;;;31.30;1.00;;;;;;6107084;23;20044;-65
2021/06/16 14:15:14;;;;;;;6.88;2.67;;;31.40;1.00;;;;;;6128118;23;20049;-65
2021/06/16 14:18:05;;;;;;;4.32;2.83;;;31.50;1.00;;;;;;6143744;23;20021;-66
2021/06/16 14:20:55;;;;;;;3.55;2.40;;;31.40;1.00;;;;;;6128364;23;20116;-64
2021/06/16 14:23:46;;;;;;;4.60;2.90;;;31.60;1.00;;;;;;6151288;23;20084;-65
2021/06/16 14:26:37;;;;;;;3.50;2.60;;;31.60;1.00;;;;;;6147258;23;20355;-65
2021/06/16 14:29:27;;;;;;;5.72;2.70;;;31.80;1.00;;;;;;6149830;23;20025;-66
2021/06/16 14:32:15;;;;;;;3.90;2.78;;;31.90;1.00;;;;;;6149408;23;20029;-65
2021/06/16 14:35:05;;;;;;;4.57;3.08;;;31.50;1.00;;;;;;6149511;23;20101;-65
2021/06/16 14:37:53;;;;;;;4.20;2.50;;;31.40;1.00;;;;;;6144326;23;20026;-65
2021/06/16 14:40:42;;;;;;;3.13;2.60;;;31.30;1.00;;;;;;6149464;23;20029;-66
2021/06/16 14:43:30;;;;;;;5.50;3.20;;;31.60;1.00;;;;;;6146288;23;20069;-66
2021/06/16 14:46:24;;;;;;;5.03;2.50;;;31.30;1.00;;;;;;6126880;23;20021;-65
2021/06/16 14:49:12;;;;;;;4.88;2.75;;;31.10;1.00;;;;;;6096366;23;20670;-65
2021/06/16 14:52:01;;;;;;;3.05;2.70;;;31.20;1.00;;;;;;6118961;23;20022;-65
2021/06/16 14:54:52;;;;;;;3.80;2.80;;;31.40;1.00;;;;;;6117441;23;20034;-65
2021/06/16 14:57:43;;;;;;;3.85;2.47;;;31.30;1.00;;;;;;6111400;23;20018;-64
2021/06/16 15:00:31;;;;;;;6.20;2.88;;;31.60;1.00;;;;;;6119376;23;20029;-65